createdAt,value
2022-11-08T00:01:22.046Z,10.10
2022-11-08T00:04:20.470Z,10.00
2022-11-08T00:07:36.425Z,10.00
2022-11-08T00:10:51.637Z,10.10
2022-11-08T00:13:58.893Z,10.00
2022-11-08T00:16:55.709Z,10.00
2022-11-08T00:19:53.158Z,10.10
2022-11-08T00:22:49.981Z,10.10
2022-11-08T00:25:54.405Z,10.00
2022-11-08T00:28:51.241Z,10.00
2022-11-08T00:31:48.109Z,10.00
2022-11-08T00:34:45.093Z,9.90
2022-11-08T00:37:41.909Z,9.90
2022-11-08T00:40:38.717Z,9.80
2022-11-08T00:43:35.626Z,9.80
2022-11-08T00:46:32.425Z,9.70
2022-11-08T00:49:29.301Z,9.70
2022-11-08T00:52:26.426Z,9.70
2022-11-08T00:55:23.240Z,9.60
2022-11-08T00:58:23.444Z,9.50
2022-11-08T01:01:24.438Z,9.40
2022-11-08T01:04:21.886Z,9.30
2022-11-08T01:07:18.946Z,9.40
2022-11-08T01:10:15.820Z,9.40
2022-11-08T01:13:13.765Z,9.40
2022-11-08T01:16:17.206Z,9.30
2022-11-08T01:19:14.101Z,9.20
2022-11-08T01:22:10.932Z,9.20
2022-11-08T01:25:08.066Z,9.20
2022-11-08T01:28:05.931Z,9.20
2022-11-08T01:31:13.899Z,9.20
2022-11-08T01:34:10.758Z,9.20
2022-11-08T01:37:07.636Z,9.00
2022-11-08T01:40:05.428Z,8.80
2022-11-08T01:43:35.768Z,8.70
2022-11-08T01:46:39.473Z,8.50
2022-11-08T01:49:46.024Z,8.40
2022-11-08T01:52:45.525Z,8.40
2022-11-08T01:55:42.906Z,8.40
2022-11-08T01:58:41.305Z,8.30
2022-11-08T02:01:38.439Z,8.20
2022-11-08T02:04:36.024Z,8.10
2022-11-08T02:07:34.677Z,8.00
2022-11-08T02:10:42.344Z,8.00
2022-11-08T02:13:40.315Z,7.90
2022-11-08T02:16:37.192Z,7.90
2022-11-08T02:19:45.625Z,7.80
2022-11-08T02:22:54.275Z,7.80
2022-11-08T02:25:51.144Z,7.80
2022-11-08T02:28:49.287Z,7.70
2022-11-08T02:31:46.143Z,7.70
2022-11-08T02:34:48.167Z,7.70
2022-11-08T02:37:46.902Z,7.60
2022-11-08T02:40:49.295Z,7.50
2022-11-08T02:43:46.149Z,7.50
2022-11-08T02:46:43.081Z,7.40
2022-11-08T02:49:40.034Z,7.40
2022-11-08T02:52:36.891Z,7.30
2022-11-08T02:55:35.193Z,7.30
2022-11-08T02:58:32.119Z,7.40
2022-11-08T03:01:29.135Z,7.40
2022-11-08T03:04:26.138Z,7.40
2022-11-08T03:07:25.036Z,7.30
2022-11-08T03:10:23.823Z,7.30
2022-11-08T03:13:20.859Z,7.10
2022-11-08T03:16:17.851Z,7.10
2022-11-08T03:19:14.733Z,7.20
2022-11-08T03:22:11.590Z,7.20
2022-11-08T03:25:08.704Z,7.10
2022-11-08T03:28:08.882Z,6.90
2022-11-08T03:31:06.011Z,6.90
2022-11-08T03:34:02.884Z,6.90
2022-11-08T03:37:00.275Z,6.90
2022-11-08T03:39:57.196Z,6.90
2022-11-08T03:42:57.469Z,7.00
2022-11-08T03:45:54.377Z,7.00
2022-11-08T03:48:51.231Z,6.90
2022-11-08T03:51:48.097Z,6.90
2022-11-08T03:54:44.930Z,6.90
2022-11-08T03:57:42.997Z,6.90
2022-11-08T04:00:40.142Z,6.70
2022-11-08T04:03:37.018Z,6.70
2022-11-08T04:06:33.916Z,6.70
2022-11-08T04:09:30.848Z,6.70
2022-11-08T04:12:46.397Z,6.60
2022-11-08T04:15:43.368Z,6.60
2022-11-08T04:18:58.783Z,6.60
2022-11-08T04:21:56.690Z,6.70
2022-11-08T04:24:53.564Z,6.70
2022-11-08T04:27:50.455Z,6.80
2022-11-08T04:31:13.285Z,6.80
2022-11-08T04:34:10.317Z,6.70
2022-11-08T04:37:08.468Z,6.70
2022-11-08T04:40:06.058Z,6.80
2022-11-08T04:43:02.898Z,6.70
2022-11-08T04:46:05.274Z,6.50
2022-11-08T04:49:02.159Z,6.50
2022-11-08T04:51:59.038Z,6.50
2022-11-08T04:54:55.845Z,6.40
2022-11-08T04:57:57.164Z,6.40
2022-11-08T05:00:54.005Z,6.40
2022-11-08T05:03:52.965Z,6.20
2022-11-08T05:06:49.916Z,6.10
2022-11-08T05:09:46.801Z,6.00
2022-11-08T05:12:43.723Z,5.90
2022-11-08T05:15:40.595Z,5.90
2022-11-08T05:18:37.456Z,5.70
2022-11-08T05:21:52.999Z,5.80
2022-11-08T05:24:49.860Z,5.70
2022-11-08T05:27:46.726Z,5.70
2022-11-08T05:30:43.696Z,5.70
2022-11-08T05:33:40.910Z,5.70
2022-11-08T05:36:37.761Z,5.70
2022-11-08T05:39:34.646Z,5.70
2022-11-08T05:42:31.467Z,5.60
2022-11-08T05:45:28.656Z,5.70
2022-11-08T05:48:25.733Z,5.70
2022-11-08T05:51:22.617Z,5.70
2022-11-08T05:54:19.427Z,5.50
2022-11-08T05:57:21.123Z,5.40
2022-11-08T06:00:20.175Z,5.30
2022-11-08T06:03:23.651Z,5.30
2022-11-08T06:06:22.127Z,5.20
2022-11-08T06:09:19.316Z,5.30
2022-11-08T06:12:16.178Z,5.10
2022-11-08T06:15:13.070Z,5.00
2022-11-08T06:18:09.887Z,5.10
2022-11-08T06:21:10.896Z,5.10
2022-11-08T06:24:08.144Z,5.20
2022-11-08T06:27:05.293Z,5.20
2022-11-08T06:30:03.672Z,5.20
2022-11-08T06:33:00.518Z,5.10
2022-11-08T06:35:57.582Z,5.20
2022-11-08T06:38:55.776Z,5.20
2022-11-08T06:41:52.615Z,5.20
2022-11-08T06:44:49.518Z,5.20
2022-11-08T06:47:46.693Z,5.20
2022-11-08T06:50:44.290Z,5.30
2022-11-08T06:53:41.556Z,5.30
2022-11-08T06:56:38.397Z,5.40
2022-11-08T06:59:35.225Z,5.30
2022-11-08T07:02:32.277Z,5.40
2022-11-08T07:05:31.531Z,5.40
2022-11-08T07:08:28.408Z,5.50
2022-11-08T07:11:25.663Z,5.60
2022-11-08T07:14:22.853Z,5.60
2022-11-08T07:17:19.670Z,5.70
2022-11-08T07:20:16.543Z,5.60
2022-11-08T07:23:14.563Z,5.70
2022-11-08T07:26:13.111Z,5.70
2022-11-08T07:29:14.771Z,5.60
2022-11-08T07:32:12.703Z,5.70
2022-11-08T07:35:09.820Z,5.70
2022-11-08T07:38:07.343Z,5.80
2022-11-08T07:41:07.257Z,5.80
2022-11-08T07:44:04.184Z,5.90
2022-11-08T07:47:01.089Z,6.00
2022-11-08T07:49:57.925Z,6.20
2022-11-08T07:52:55.060Z,6.40
2022-11-08T07:55:52.261Z,6.50
2022-11-08T07:58:49.188Z,6.50
2022-11-08T08:01:46.032Z,7.00
2022-11-08T08:04:42.981Z,7.00
2022-11-08T08:07:40.277Z,7.20
2022-11-08T08:10:37.550Z,7.40
2022-11-08T08:13:34.411Z,7.50
2022-11-08T08:16:31.430Z,7.60
2022-11-08T08:19:28.306Z,7.50
2022-11-08T08:22:25.191Z,7.60
2022-11-08T08:25:22.293Z,7.60
2022-11-08T08:28:19.115Z,7.80
2022-11-08T08:31:16.309Z,8.00
2022-11-08T08:34:15.559Z,7.90
2022-11-08T08:37:15.363Z,8.10
2022-11-08T08:40:12.560Z,8.20
2022-11-08T08:43:09.380Z,8.20
2022-11-08T08:46:07.286Z,8.40
2022-11-08T08:49:04.640Z,8.40
2022-11-08T08:52:01.907Z,8.60
2022-11-08T08:54:58.862Z,8.70
2022-11-08T08:57:56.521Z,8.60
2022-11-08T09:04:10.280Z,8.80
2022-11-08T09:07:07.486Z,8.80
2022-11-08T09:10:07.060Z,8.80
2022-11-08T09:13:04.228Z,8.90
2022-11-08T09:16:02.866Z,9.00
2022-11-08T09:18:59.757Z,8.90
2022-11-08T09:21:56.659Z,9.00
2022-11-08T09:24:53.646Z,9.10
2022-11-08T09:27:51.020Z,9.10
2022-11-08T09:30:47.852Z,9.20
2022-11-08T09:33:44.691Z,9.30
2022-11-08T09:36:41.525Z,9.40
2022-11-08T09:39:38.396Z,9.40
2022-11-08T09:43:21.101Z,9.40
2022-11-08T09:46:38.210Z,9.50
2022-11-08T09:50:06.566Z,9.70
2022-11-08T09:53:19.047Z,9.70
2022-11-08T09:56:23.483Z,10.20
2022-11-08T09:59:32.565Z,10.20
2022-11-08T10:02:30.651Z,10.10
2022-11-08T10:05:34.874Z,10.10
2022-11-08T10:08:44.118Z,10.30
2022-11-08T10:12:09.738Z,10.40
2022-11-08T10:16:01.101Z,11.00
2022-11-08T10:19:09.750Z,12.00
2022-11-08T10:22:27.225Z,12.90
2022-11-08T10:25:38.387Z,13.40
2022-11-08T10:28:41.856Z,13.70
2022-11-08T10:31:41.757Z,14.60
2022-11-08T10:35:44.203Z,15.10
2022-11-08T10:38:59.930Z,15.70
2022-11-08T10:42:18.341Z,15.30
2022-11-08T10:45:15.247Z,15.10
2022-11-08T10:48:12.709Z,14.00
2022-11-08T10:51:09.550Z,13.50
2022-11-08T10:54:07.313Z,13.10
2022-11-08T10:57:04.219Z,12.90
2022-11-08T11:00:19.726Z,12.80
2022-11-08T11:03:28.798Z,12.90
2022-11-08T11:06:32.861Z,12.90
2022-11-08T11:09:29.909Z,13.00
2022-11-08T11:12:26.888Z,13.10
2022-11-08T11:15:23.751Z,13.50
2022-11-08T11:18:49.088Z,13.30
2022-11-08T11:21:54.564Z,12.90
2022-11-08T11:24:54.104Z,12.90
2022-11-08T11:28:00.853Z,12.80
2022-11-08T11:31:13.128Z,13.00
2022-11-08T11:34:19.031Z,13.10
2022-11-08T11:37:34.114Z,13.70
2022-11-08T11:40:45.612Z,14.00
2022-11-08T11:43:56.541Z,14.30
2022-11-08T11:47:06.914Z,14.80
2022-11-08T11:50:41.680Z,14.70
2022-11-08T11:53:39.790Z,14.20
2022-11-08T11:57:16.738Z,14.10
2022-11-08T12:00:16.138Z,13.70
2022-11-08T12:03:39.062Z,14.50
2022-11-08T12:07:19.170Z,14.80
2022-11-08T12:10:50.297Z,14.90
2022-11-08T12:13:59.751Z,15.30
2022-11-08T12:17:19.057Z,15.40
2022-11-08T12:20:35.522Z,15.30
2022-11-08T12:24:18.111Z,15.40
2022-11-08T12:27:50.021Z,15.50
2022-11-08T12:31:03.058Z,15.30
2022-11-08T12:34:33.587Z,15.30
2022-11-08T12:37:33.078Z,15.30
2022-11-08T12:40:51.204Z,15.10
2022-11-08T12:44:09.774Z,15.10
2022-11-08T12:47:28.924Z,14.90
2022-11-08T12:50:56.324Z,14.80
2022-11-08T12:54:36.514Z,14.80
2022-11-08T12:57:33.509Z,14.70
2022-11-08T13:00:31.029Z,14.50
2022-11-08T13:03:51.597Z,14.60
2022-11-08T13:07:19.015Z,14.60
2022-11-08T13:10:24.781Z,14.60
2022-11-08T13:13:58.449Z,14.50
2022-11-08T13:17:20.168Z,14.30
2022-11-08T13:20:48.227Z,14.10
2022-11-08T13:23:45.284Z,14.10
2022-11-08T13:26:43.362Z,14.30
2022-11-08T13:29:40.753Z,14.10
2022-11-08T13:32:43.882Z,13.90
2022-11-08T13:35:53.008Z,13.80
2022-11-08T13:39:22.767Z,13.80
2022-11-08T13:42:19.859Z,13.90
2022-11-08T13:45:17.117Z,14.00
2022-11-08T13:48:26.529Z,13.90
2022-11-08T13:51:33.614Z,14.00
2022-11-08T13:54:50.890Z,13.90
2022-11-08T13:57:58.727Z,13.80
2022-11-08T14:00:56.132Z,13.70
2022-11-08T14:03:56.275Z,13.50
2022-11-08T14:07:25.386Z,13.30
2022-11-08T14:10:39.919Z,13.40
2022-11-08T14:14:17.220Z,13.20
2022-11-08T14:17:29.885Z,13.20
2022-11-08T14:20:34.818Z,13.10
2022-11-08T14:23:36.482Z,13.10
2022-11-08T14:26:33.332Z,13.00
2022-11-08T14:29:30.383Z,13.00
2022-11-08T14:32:27.341Z,12.80
2022-11-08T14:35:25.952Z,12.80
2022-11-08T14:38:23.131Z,12.90
2022-11-08T14:41:27.793Z,12.90
2022-11-08T14:44:26.088Z,12.90
2022-11-08T14:47:27.583Z,12.80
2022-11-08T14:50:32.571Z,12.70
2022-11-08T14:53:33.686Z,12.60
2022-11-08T14:56:38.720Z,12.70
2022-11-08T14:59:35.578Z,12.70
2022-11-08T15:02:33.464Z,12.50
2022-11-08T15:05:55.120Z,12.50
2022-11-08T15:08:55.154Z,12.30
2022-11-08T15:11:58.225Z,12.00
2022-11-08T15:15:00.474Z,11.90
2022-11-08T15:18:15.074Z,11.70
2022-11-08T15:21:11.823Z,11.70
2022-11-08T15:24:15.251Z,11.60
2022-11-08T15:27:11.951Z,11.60
2022-11-08T15:30:17.153Z,11.30
2022-11-08T15:33:35.554Z,11.30
2022-11-08T15:36:36.163Z,11.20
2022-11-08T15:39:39.653Z,11.10
2022-11-08T15:42:45.764Z,10.80
2022-11-08T15:45:53.405Z,10.60
2022-11-08T15:48:57.750Z,10.70
2022-11-08T15:51:58.526Z,10.90
2022-11-08T15:54:55.323Z,10.80
2022-11-08T15:57:52.587Z,10.90
2022-11-08T16:00:50.147Z,10.70
2022-11-08T16:03:48.428Z,10.60
2022-11-08T16:06:45.460Z,10.40
2022-11-08T16:09:42.385Z,10.30
2022-11-08T16:12:42.828Z,10.50
2022-11-08T16:15:39.703Z,10.30
2022-11-08T16:18:36.634Z,10.20
2022-11-08T16:21:33.473Z,10.00
2022-11-08T16:24:30.372Z,9.80
2022-11-08T16:27:27.209Z,9.50
2022-11-08T16:30:24.444Z,9.40
2022-11-08T16:33:24.396Z,9.30
2022-11-08T16:36:24.644Z,9.20
2022-11-08T16:39:28.259Z,9.10
2022-11-08T16:42:25.855Z,9.10
2022-11-08T16:45:43.423Z,8.90
2022-11-08T16:48:47.384Z,8.90
2022-11-08T16:51:44.222Z,8.80
2022-11-08T16:54:41.119Z,8.70
2022-11-08T16:57:37.927Z,8.70
2022-11-08T17:00:34.957Z,8.70
2022-11-08T17:03:32.600Z,8.70
2022-11-08T17:06:29.472Z,8.70
2022-11-08T17:09:26.523Z,8.60
2022-11-08T17:12:23.461Z,8.60
2022-11-08T17:15:27.249Z,8.60
2022-11-08T17:18:24.254Z,8.70
2022-11-08T17:24:38.676Z,8.50
2022-11-08T17:27:35.559Z,8.40
2022-11-08T17:30:32.734Z,8.30
2022-11-08T17:33:29.719Z,8.30
2022-11-08T17:36:26.576Z,8.30
2022-11-08T17:39:23.426Z,8.40
2022-11-08T17:42:20.220Z,8.30
2022-11-08T17:45:17.057Z,8.50
2022-11-08T17:48:13.915Z,8.50
2022-11-08T17:51:12.021Z,8.60
2022-11-08T17:54:08.913Z,8.50
2022-11-08T17:57:05.743Z,8.50
2022-11-08T18:00:08.600Z,8.50
2022-11-08T18:03:12.556Z,8.40
2022-11-08T18:06:13.224Z,8.30
2022-11-08T18:09:10.470Z,8.20
2022-11-08T18:12:07.397Z,8.50
2022-11-08T18:15:06.179Z,8.60
2022-11-08T18:18:03.207Z,8.30
2022-11-08T18:21:00.013Z,8.30
2022-11-08T18:23:59.759Z,8.30
2022-11-08T18:26:56.743Z,8.30
2022-11-08T18:29:53.567Z,8.40
2022-11-08T18:32:50.472Z,8.40
2022-11-08T18:35:47.463Z,8.40
2022-11-08T18:38:45.814Z,8.40
2022-11-08T18:41:42.683Z,8.50
2022-11-08T18:44:40.600Z,8.50
2022-11-08T18:47:37.440Z,8.50
2022-11-08T18:50:35.403Z,8.50
2022-11-08T18:53:32.811Z,8.40
2022-11-08T18:56:29.827Z,8.50
2022-11-08T18:59:26.659Z,8.50
2022-11-08T19:02:23.717Z,8.40
2022-11-08T19:05:20.547Z,8.40
2022-11-08T19:08:21.945Z,8.40
2022-11-08T19:11:22.769Z,8.40
2022-11-08T19:14:19.872Z,8.50
2022-11-08T19:17:16.706Z,8.60
2022-11-08T19:20:13.652Z,8.50
2022-11-08T19:23:10.574Z,8.40
2022-11-08T19:26:17.931Z,8.30
2022-11-08T19:29:14.762Z,8.40
2022-11-08T19:32:11.658Z,8.30
2022-11-08T19:35:08.798Z,8.30
2022-11-08T19:38:06.080Z,8.40
2022-11-08T19:41:06.606Z,8.30
2022-11-08T19:44:05.295Z,8.30
2022-11-08T19:47:02.199Z,8.30
2022-11-08T19:49:59.010Z,8.20
2022-11-08T19:52:55.885Z,8.20
2022-11-08T19:56:04.889Z,8.20
2022-11-08T19:59:02.449Z,8.20
2022-11-08T20:01:59.999Z,8.20
2022-11-08T20:04:57.037Z,8.30
2022-11-08T20:07:53.917Z,8.20
2022-11-08T20:10:51.559Z,8.20
2022-11-08T20:13:48.610Z,8.20
2022-11-08T20:16:49.356Z,8.20
2022-11-08T20:19:50.702Z,8.10
2022-11-08T20:22:48.373Z,8.10
2022-11-08T20:25:45.270Z,8.10
2022-11-08T20:28:55.197Z,8.10
2022-11-08T20:31:54.344Z,8.20
2022-11-08T20:34:51.516Z,8.10
2022-11-08T20:37:48.457Z,8.00
2022-11-08T20:40:45.295Z,8.00
2022-11-08T20:43:44.659Z,7.90
2022-11-08T20:46:41.598Z,7.90
2022-11-08T20:49:38.445Z,7.80
2022-11-08T20:52:35.267Z,7.80
2022-11-08T20:55:32.358Z,7.80
2022-11-08T20:58:31.969Z,7.70
2022-11-08T21:01:30.590Z,7.80
2022-11-08T21:04:27.453Z,7.80
2022-11-08T21:10:43.199Z,7.90
2022-11-08T21:13:43.609Z,7.80
2022-11-08T21:17:06.589Z,7.60
2022-11-08T21:19:57.231Z,7.90
2022-11-08T21:22:54.049Z,8.60
2022-11-08T21:25:51.309Z,8.50
2022-11-08T21:28:48.231Z,8.30
2022-11-08T21:31:45.039Z,8.10
2022-11-08T21:34:45.827Z,8.00
2022-11-08T21:37:43.156Z,7.90
2022-11-08T21:40:40.067Z,7.80
2022-11-08T21:43:39.705Z,7.80
2022-11-08T21:46:36.554Z,7.60
2022-11-08T21:49:33.387Z,7.60
2022-11-08T21:52:30.349Z,7.60
2022-11-08T21:55:28.580Z,7.60
2022-11-08T21:58:25.426Z,7.70
2022-11-08T22:01:25.563Z,7.80
2022-11-08T22:04:26.574Z,7.80
2022-11-08T22:07:23.468Z,7.80
2022-11-08T22:10:20.414Z,7.80
2022-11-08T22:13:17.495Z,7.90
2022-11-08T22:16:14.361Z,7.90
2022-11-08T22:19:11.597Z,8.00
2022-11-08T22:22:09.085Z,8.10
2022-11-08T22:25:06.492Z,8.10
2022-11-08T22:28:03.336Z,8.10
2022-11-08T22:31:00.258Z,8.10
2022-11-08T22:33:57.176Z,8.10
2022-11-08T22:36:53.997Z,8.10
2022-11-08T22:39:50.814Z,8.10
2022-11-08T22:42:47.598Z,8.10
2022-11-08T22:45:44.626Z,8.20
2022-11-08T22:48:41.728Z,8.20
2022-11-08T22:51:39.921Z,8.20
2022-11-08T22:54:36.815Z,8.30
2022-11-08T22:57:33.604Z,8.30
2022-11-08T23:00:30.555Z,8.30
2022-11-08T23:03:27.372Z,8.30
2022-11-08T23:06:24.219Z,8.40
2022-11-08T23:09:21.126Z,8.40
2022-11-08T23:12:36.387Z,8.40
2022-11-08T23:15:53.635Z,8.40
2022-11-08T23:19:09.063Z,8.40
2022-11-08T23:22:28.538Z,8.60
2022-11-08T23:25:25.366Z,8.90
2022-11-08T23:28:41.119Z,9.00
2022-11-08T23:31:38.037Z,9.10
2022-11-08T23:34:34.836Z,9.10
2022-11-08T23:37:31.657Z,9.20
2022-11-08T23:40:47.282Z,9.50
2022-11-08T23:44:02.496Z,9.60
2022-11-08T23:47:01.119Z,10.00
2022-11-08T23:49:57.958Z,9.80
2022-11-08T23:52:54.790Z,10.00
2022-11-08T23:55:53.533Z,9.90
2022-11-08T23:58:55.974Z,9.90
